Data for 02/12/2008

Time Sea-Level Adjusted Pressure Absolute Pressure Temperature Relative Humidity Dew Point   
(mb) (inHg) (mb) (inHg) (C) (F) (%) (C) (F)
00:05 1019 30.09 849 25.07 1.3 34.4 65 -4.5 23.9
00:10 1019 30.09 849 25.07 1.4 34.6 63 -4.8 23.3
00:15 1019 30.09 849 25.07 1.6 34.8 62 -5.1 22.9
00:20 1019 30.09 849 25.07 1.7 35 62 -4.9 23.2
00:25 1019 30.09 849 25.07 1.7 35.1 61 -5 23.1
00:30 1019 30.09 848 25.04 1.8 35.3 61 -4.8 23.3
00:35 1019 30.09 849 25.07 1.9 35.4 62 -4.5 23.8
00:40 1019 30.09 848 25.04 1.9 35.4 63 -4.4 24.1
00:45 1019 30.09 848 25.04 1.9 35.5 63 -4.4 24.2
00:50 1019 30.09 848 25.04 2 35.7 63 -4.3 24.2
00:55 1019 30.09 848 25.04 2.1 35.8 63 -4.2 24.4
01:00 1019 30.09 848 25.04 2.2 35.9 63 -4.2 24.4
01:05 1019 30.09 849 25.07 2.3 36.1 62 -4.2 24.4
01:10 1019 30.09 848 25.04 2.3 36.2 63 -4 24.7
01:15 1019 30.09 848 25.04 2.3 36.1 62 -4.4 24.1
01:20 1019 30.09 848 25.04 2.3 36.2 62 -4.2 24.4
01:25 1019 30.09 848 25.04 2.3 36.1 63 -4.1 24.7
01:30 1019 30.09 849 25.07 2.2 35.9 63 -4.1 24.7
01:35 1019 30.09 849 25.07 2.1 35.8 63 -4.2 24.5
01:40 1019 30.09 849 25.07 2.1 35.9 63 -4.1 24.6
01:45 1019 30.09 849 25.07 2.2 35.9 63 -4.1 24.6
01:50 1019 30.09 849 25.07 2.1 35.8 64 -4 24.8
01:55 1020 30.12 849 25.07 2.1 35.7 64 -4 24.8
02:00 1020 30.12 849 25.07 2.1 35.8 64 -4 24.8
02:05 1020 30.12 849 25.07 2.1 35.8 65 -3.8 25.1
02:10 1020 30.12 849 25.07 2.1 35.8 65 -3.9 25
02:15 1020 30.12 849 25.07 2.1 35.8 65 -3.8 25.1
02:20 1020 30.12 849 25.07 2 35.7 66 -3.7 25.4
02:25 1020 30.12 849 25.07 1.9 35.5 66 -3.7 25.4
02:30 1020 30.12 849 25.07 1.9 35.4 67 -3.7 25.3
02:35 1020 30.12 849 25.07 1.9 35.4 65 -4 24.8
02:40 1020 30.12 849 25.07 2.1 35.7 64 -4 24.9
02:45 1020 30.12 849 25.07 2.2 35.9 66 -3.6 25.5
02:50 1020 30.12 849 25.07 2.1 35.7 67 -3.5 25.7
02:55 1020 30.12 849 25.07 2 35.6 67 -3.6 25.6
03:00 1020 30.12 849 25.07 2 35.5 66 -3.7 25.4
03:05 1020 30.12 849 25.07 2 35.6 66 -3.6 25.5
03:10 1020 30.12 849 25.07 2 35.6 66 -3.6 25.5
03:15 1020 30.12 849 25.07 2 35.6 66 -3.7 25.4
03:20 1020 30.12 849 25.07 2.1 35.7 66 -3.7 25.4
03:25 1020 30.12 849 25.07 2.1 35.7 66 -3.7 25.4
03:30 1020 30.12 849 25.07 2.1 35.7 67 -3.5 25.8
03:35 1020 30.12 849 25.07 2 35.6 67 -3.5 25.6
03:40 1020 30.12 849 25.07 1.9 35.5 67 -3.5 25.8
03:45 1020 30.12 849 25.07 1.9 35.4 67 -3.6 25.5
03:50 1020 30.12 849 25.07 1.9 35.5 66 -3.8 25.1
03:55 1020 30.12 849 25.07 2.1 35.7 65 -3.8 25.1
04:00 1020 30.12 849 25.07 2.1 35.8 65 -3.9 25
04:05 1020 30.12 849 25.07 2.2 36 64 -3.9 25
04:10 1020 30.12 849 25.07 2.3 36.2 63 -4 24.7
04:15 1020 30.12 849 25.07 2.4 36.3 62 -4.2 24.5
04:20 1020 30.12 849 25.07 2.3 36.2 63 -3.9 24.9
04:25 1020 30.12 849 25.07 2.3 36.1 61 -4.4 24.1
04:30 1020 30.12 849 25.07 2.4 36.4 60 -4.6 23.8
04:35 1020 30.12 849 25.07 2.6 36.7 60 -4.3 24.3
04:40 1020 30.12 849 25.07 2.6 36.7 60 -4.3 24.3
04:45 1020 30.12 849 25.07 2.6 36.7 60 -4.4 24.1
04:50 1020 30.12 849 25.07 2.6 36.7 61 -4.3 24.3
04:55 1020 30.12 849 25.07 2.6 36.6 61 -4.2 24.5
05:00 1020 30.12 849 25.07 2.5 36.5 61 -4.3 24.3
05:05 1020 30.12 849 25.07 2.5 36.5 61 -4.2 24.4
05:10 1020 30.12 849 25.07 2.5 36.5 61 -4.2 24.4
05:15 1020 30.12 849 25.07 2.5 36.6 61 -4.2 24.5
05:20 1020 30.12 849 25.07 2.6 36.6 61 -4.1 24.5
05:25 1020 30.12 849 25.07 2.5 36.5 62 -4.1 24.6
05:30 1020 30.12 849 25.07 2.5 36.5 61 -4.2 24.5
05:35 1020 30.12 849 25.07 2.5 36.5 62 -4.1 24.7
05:40 1020 30.12 849 25.07 2.4 36.4 63 -4 24.8
05:45 1020 30.12 849 25.07 2.4 36.3 63 -4 24.8
05:50 1020 30.12 849 25.07 2.4 36.4 62 -4.1 24.6
05:55 1020 30.12 849 25.07 2.5 36.5 62 -4.1 24.6
06:00 1020 30.12 849 25.07 2.5 36.5 62 -4 24.7
06:05 1020 30.12 849 25.07 2.4 36.4 63 -3.8 25.1
06:10 1020 30.12 850 25.1 2.3 36.2 64 -3.8 25.1
06:15 1020 30.12 850 25.1 2.3 36.2 64 -3.8 25.2
06:20 1021 30.15 850 25.1 2.3 36.2 65 -3.6 25.5
06:25 1021 30.15 850 25.1 2.2 36 65 -3.6 25.5
06:30 1021 30.15 850 25.1 2.1 35.9 66 -3.5 25.7
06:35 1021 30.15 850 25.1 2.1 35.8 66 -3.6 25.5
06:40 1021 30.15 850 25.1 2.2 35.9 66 -3.5 25.6
06:45 1021 30.15 850 25.1 2.2 36 66 -3.6 25.5
06:50 1021 30.15 850 25.1 2.2 36 66 -3.5 25.6
06:55 1021 30.15 850 25.1 2.1 35.9 65 -3.7 25.4
07:00 1021 30.15 850 25.1 2.1 35.8 66 -3.5 25.7
07:05 1021 30.15 850 25.1 2.1 35.8 66 -3.7 25.4
07:10 1021 30.15 850 25.1 2.2 35.9 66 -3.5 25.6
07:15 1021 30.15 850 25.1 2.1 35.8 66 -3.5 25.7
07:20 1021 30.15 850 25.1 2.1 35.7 67 -3.5 25.8
07:25 1021 30.15 850 25.1 2.2 35.9 66 -3.6 25.5
07:30 1021 30.15 850 25.1 2.2 36 65 -3.6 25.6
07:35 1021 30.15 850 25.1 2.2 35.9 65 -3.6 25.4
07:40 1021 30.15 850 25.1 2.2 35.9 66 -3.5 25.7
07:45 1021 30.15 850 25.1 2.2 36 65 -3.7 25.3
07:50 1021 30.15 850 25.1 2.3 36.2 65 -3.5 25.6
07:55 1021 30.15 850 25.1 2.4 36.3 66 -3.3 26
08:00 1021 30.15 851 25.13 2.4 36.3 66 -3.4 25.9
08:05 1022 30.18 851 25.13 2.4 36.3 68 -3 26.7
08:10 1022 30.18 851 25.13 2.4 36.4 68 -2.9 26.7
08:15 1022 30.18 851 25.13 2.5 36.5 69 -2.5 27.4
08:20 1022 30.18 851 25.13 2.4 36.3 73 -2 28.3
08:25 1022 30.18 851 25.13 2.3 36.2 74 -1.8 28.8
08:30 1022 30.18 851 25.13 2.3 36.2 75 -1.7 28.9
08:35 1022 30.18 851 25.13 2.5 36.5 73 -1.9 28.6
08:40 1022 30.18 851 25.13 2.7 36.8 71 -2.1 28.2
08:45 1022 30.18 851 25.13 2.7 36.9 71 -1.9 28.5
08:50 1022 30.18 851 25.13 2.7 36.8 73 -1.7 28.9
08:55 1022 30.18 851 25.13 2.6 36.6 75 -1.5 29.4
09:00 1022 30.18 851 25.13 2.5 36.5 76 -1.4 29.5
09:05 1022 30.18 851 25.13 2.3 36.1 78 -1.2 29.9
09:10 1022 30.18 851 25.13 2.1 35.8 80 -1 30.1
09:15 1022 30.18 851 25.13 2 35.5 81 -0.9 30.4
09:20 1022 30.18 851 25.13 1.6 34.8 84 -0.9 30.4
09:25 1022 30.18 851 25.13 1.5 34.7 84 -0.9 30.3
09:30 1022 30.18 851 25.13 1.7 35 84 -0.7 30.7
09:35 1022 30.18 851 25.13 1.8 35.3 84 -0.6 30.9
09:40 1022 30.18 851 25.13 2 35.6 84 -0.5 31.2
09:45 1022 30.18 851 25.13 2 35.5 85 -0.4 31.4
09:50 1022 30.18 851 25.13 2 35.6 85 -0.3 31.5
09:55 1022 30.18 851 25.13 2.1 35.7 84 -0.4 31.4
10:00 1022 30.18 851 25.13 2 35.6 86 -0.2 31.7
10:05 1022 30.18 851 25.13 1.9 35.4 86 -0.3 31.5
10:10 1022 30.18 851 25.13 1.9 35.4 86 -0.2 31.7
10:15 1022 30.18 851 25.13 1.9 35.5 88 0.2 32.3
10:20 1022 30.18 851 25.13 2.1 35.7 86 -0.1 31.9
10:25 1022 30.18 851 25.13 1.9 35.4 87 -0.1 31.9
10:30 1022 30.18 851 25.13 2.1 35.8 85 -0.2 31.6
10:35 1022 30.18 851 25.13 2.5 36.5 83 -0.1 31.8
10:40 1022 30.18 851 25.13 3 37.4 79 -0.3 31.4
10:45 1022 30.18 851 25.13 3.2 37.8 77 -0.4 31.2
10:50 1022 30.18 851 25.13 3.5 38.3 76 -0.4 31.2
10:55 1022 30.18 851 25.13 3.7 38.6 77 -0 31.9
11:00 1022 30.18 851 25.13 3.8 38.8 77 0.1 32.1
11:05 1022 30.18 851 25.13 3.8 38.8 76 -0 31.9
11:10 1022 30.18 851 25.13 3.6 38.6 78 0.1 32.2
11:15 1022 30.18 851 25.13 3.6 38.5 78 0 32.1
11:20 1022 30.18 851 25.13 3.7 38.6 76 -0.1 31.8
11:25 1022 30.18 851 25.13 3.8 38.9 75 -0.3 31.5
11:30 1022 30.18 851 25.13 4.1 39.3 73 -0.2 31.6
11:35 1022 30.18 851 25.13 4.1 39.5 74 -0 31.9
11:40 1022 30.18 851 25.13 4.3 39.7 73 -0.1 31.8
11:45 1022 30.18 851 25.13 4.5 40.1 74 0.3 32.5
11:50 1021 30.15 851 25.13 4.6 40.3 73 0.2 32.3
11:55 1021 30.15 850 25.1 4.5 40.1 72 -0.1 31.8
12:00 1021 30.15 850 25.1 4.6 40.3 71 -0.3 31.5
12:05 1021 30.15 850 25.1 4.9 40.8 69 -0.3 31.4
12:10 1021 30.15 850 25.1 5.3 41.6 66 -0.5 31.1
12:15 1021 30.15 850 25.1 6.7 44 60 -0.5 31.1
12:20 1021 30.15 850 25.1 7.2 44.9 59 -0.2 31.6
12:25 1021 30.15 850 25.1 7.2 44.9 61 0.2 32.4
12:30 1020 30.12 850 25.1 7.1 44.7 59 -0.4 31.2
12:35 1020 30.12 849 25.07 6.9 44.3 60 -0.3 31.5
12:40 1020 30.12 849 25.07 6.1 42.9 61 -0.9 30.4
12:45 1020 30.12 849 25.07 7 44.6 57 -0.9 30.4
12:50 1020 30.12 849 25.07 7.5 45.4 54 -1.1 30
12:55 1020 30.12 849 25.07 8.2 46.7 53 -0.9 30.5
13:00 1020 30.12 849 25.07 8.6 47.4 52 -0.8 30.6
13:05 1020 30.12 849 25.07 8.8 47.8 51 -0.7 30.7
13:10 1020 30.12 849 25.07 8.6 47.4 59 1.1 33.9
13:15 1020 30.12 849 25.07 7.3 45.1 59 -0.1 31.8
13:20 1020 30.12 849 25.07 7.2 45 57 -0.6 30.9
13:25 1019 30.09 849 25.07 7.6 45.6 56 -0.6 30.8
13:30 1019 30.09 849 25.07 7.8 46.1 57 -0 32
13:35 1019 30.09 849 25.07 7.3 45.2 58 -0.4 31.3
13:40 1019 30.09 848 25.04 6.9 44.5 57 -0.9 30.4
13:45 1019 30.09 848 25.04 6.9 44.5 59 -0.5 31
13:50 1019 30.09 848 25.04 6.5 43.6 59 -0.9 30.4
13:55 1019 30.09 848 25.04 6.4 43.5 58 -1.2 29.8
14:00 1019 30.09 848 25.04 6.3 43.3 59 -1.1 30
14:05 1019 30.09 848 25.04 6.5 43.8 56 -1.5 29.3
14:10 1019 30.09 848 25.04 6.6 43.8 56 -1.6 29.1
14:15 1019 30.09 848 25.04 6.3 43.3 56 -1.8 28.8
14:20 1019 30.09 848 25.04 6.1 42.9 57 -1.8 28.7
14:25 1019 30.09 848 25.04 6.2 43.2 57 -1.6 29.1
14:30 1019 30.09 848 25.04 6.1 43 57 -1.8 28.8
14:35 1019 30.09 848 25.04 6.4 43.5 56 -1.7 28.9
14:40 1018 30.06 848 25.04 5.7 42.3 61 -1.3 29.7
14:45 1018 30.06 847 25.01 5.6 42.1 59 -1.8 28.8
14:50 1018 30.06 847 25.01 6.1 43 59 -1.3 29.6
14:55 1018 30.06 847 25.01 6.1 43 58 -1.6 29.1
15:00 1018 30.06 847 25.01 6.2 43.1 58 -1.5 29.2
15:05 1018 30.06 847 25.01 6.6 43.9 55 -1.8 28.8
15:10 1018 30.06 847 25.01 6.3 43.3 58 -1.4 29.4
15:15 1018 30.06 847 25.01 6.3 43.3 57 -1.5 29.2
15:20 1018 30.06 847 25.01 6.4 43.5 57 -1.5 29.3
15:25 1018 30.06 847 25.01 6.4 43.6 57 -1.4 29.6
15:30 1018 30.06 847 25.01 6.3 43.4 57 -1.5 29.3
15:35 1018 30.06 847 25.01 6.4 43.6 57 -1.5 29.3
15:40 1018 30.06 847 25.01 6.5 43.7 56 -1.6 29.1
15:45 1017 30.03 847 25.01 6.5 43.7 55 -1.7 28.9
15:50 1017 30.03 847 25.01 6.6 43.9 54 -2 28.4
15:55 1017 30.03 846 24.98 6.3 43.4 56 -1.7 29
16:00 1017 30.03 846 24.98 6.5 43.7 55 -1.8 28.7
16:05 1017 30.03 846 24.98 6.4 43.5 57 -1.6 29.2
16:10 1017 30.03 846 24.98 6.7 44 55 -1.8 28.8
16:15 1017 30.03 846 24.98 7 44.6 54 -1.7 28.9
16:20 1017 30.03 846 24.98 7 44.7 54 -1.6 29
16:25 1017 30.03 846 24.98 6.8 44.3 54 -1.8 28.8
16:30 1017 30.03 846 24.98 6.8 44.3 56 -1.3 29.6
16:35 1017 30.03 846 24.98 6.7 44 57 -1.2 29.8
16:40 1017 30.03 846 24.98 6.7 44 56 -1.5 29.3
16:45 1016 30 846 24.98 6.6 44 55 -1.8 28.8
16:50 1016 30 846 24.98 6.4 43.6 55 -1.8 28.7
16:55 1016 30 845 24.95 6.5 43.8 54 -2 28.4
17:00 1016 30 846 24.98 6.7 44.1 54 -1.9 28.6
17:05 1016 30 846 24.98 6.7 44 54 -2 28.5
17:10 1016 30 846 24.98 6.6 43.9 55 -1.7 29
17:15 1016 30 845 24.95 6.4 43.6 55 -1.8 28.7
17:20 1016 30 845 24.95 5.9 42.7 57 -1.9 28.6
17:25 1016 30 845 24.95 5.7 42.3 57 -2 28.3
17:30 1016 30 845 24.95 5.6 42.2 58 -2 28.5
17:35 1016 30 845 24.95 5.5 41.9 58 -2.1 28.2
17:40 1016 30 845 24.95 5.2 41.4 58 -2.3 27.9
17:45 1016 30 845 24.95 5 41 59 -2.3 27.9
17:50 1015 29.97 845 24.95 5 40.9 58 -2.5 27.5
17:55 1015 29.97 845 24.95 5 41 59 -2.3 27.8
18:00 1015 29.97 845 24.95 4.9 40.7 61 -1.9 28.5
18:05 1015 29.97 844 24.92 4.5 40.2 63 -1.9 28.7
18:10 1015 29.97 844 24.92 4.1 39.4 63 -2.3 27.8
18:15 1015 29.97 844 24.92 4.3 39.8 63 -2.1 28.2
18:20 1015 29.97 844 24.92 4.4 40 62 -2.1 28.2
18:25 1015 29.97 844 24.92 4.3 39.8 63 -2.1 28.3
18:30 1015 29.97 844 24.92 4.1 39.4 65 -1.8 28.8
18:35 1015 29.97 844 24.92 3.7 38.7 66 -2 28.4
18:40 1015 29.97 844 24.92 3.5 38.3 66 -2.2 28
18:45 1015 29.97 844 24.92 3.7 38.6 64 -2.5 27.5
18:50 1015 29.97 844 24.92 3.7 38.7 66 -1.9 28.6
18:55 1015 29.97 844 24.92 3.5 38.3 65 -2.5 27.5
19:00 1014 29.94 844 24.92 3.7 38.6 64 -2.5 27.6
19:05 1014 29.94 844 24.92 3.8 38.8 64 -2.4 27.7
19:10 1014 29.94 843 24.89 3.9 39 62 -2.8 27
19:15 1014 29.94 843 24.89 4.1 39.4 65 -1.9 28.7
19:20 1014 29.94 843 24.89 3.6 38.5 67 -2 28.3
19:25 1014 29.94 843 24.89 3.4 38 67 -2.2 28.1
19:30 1014 29.94 843 24.89 3.4 38.1 67 -2.2 28
19:35 1014 29.94 843 24.89 3.3 37.9 68 -1.9 28.5
19:40 1014 29.94 843 24.89 3.2 37.8 68 -2.2 28.1
19:45 1013 29.91 843 24.89 2.9 37.3 71 -1.7 28.9
19:50 1013 29.91 843 24.89 2.6 36.7 71 -2.1 28.2
19:55 1013 29.91 843 24.89 2.5 36.5 71 -2.2 28
20:00 1013 29.91 842 24.86 2.6 36.8 70 -2.4 27.7
20:05 1013 29.91 842 24.86 3 37.4 69 -2.1 28.3
20:10 1013 29.91 842 24.86 2.7 36.9 70 -2.1 28.1
20:15 1013 29.91 842 24.86 2.7 36.8 70 -2.2 28.1
20:20 1013 29.91 842 24.86 2.9 37.2 69 -2.3 27.8
20:25 1012 29.88 842 24.86 2.9 37.1 70 -2.1 28.1
20:30 1012 29.88 842 24.86 2.8 37 71 -2 28.4
20:35 1012 29.88 841 24.83 2.6 36.8 71 -2.1 28.2
20:40 1012 29.88 841 24.83 2.7 36.8 72 -2 28.4
20:45 1012 29.88 841 24.83 2.5 36.5 73 -1.9 28.6
20:50 1012 29.88 841 24.83 2.3 36.1 73 -2.1 28.2
20:55 1011 29.85 841 24.83 2.3 36.1 73 -2.1 28.2
21:00 1011 29.85 841 24.83 2.4 36.2 72 -2.2 28.1
21:05 1011 29.85 841 24.83 2.5 36.5 71 -2.3 27.9
21:10 1011 29.85 841 24.83 2.6 36.7 70 -2.2 28
21:15 1011 29.85 841 24.83 2.7 36.9 69 -2.4 27.7
21:20 1011 29.85 841 24.83 3.1 37.5 66 -2.7 27.1
21:25 1011 29.85 841 24.83 3.6 38.4 65 -2.5 27.5
21:30 1011 29.85 841 24.83 3.7 38.7 64 -2.5 27.6
21:35 1011 29.85 841 24.83 3.9 38.9 63 -2.6 27.4
21:40 1011 29.85 841 24.83 4.2 39.5 64 -2 28.4
21:45 1011 29.85 840 24.81 4.3 39.7 64 -1.9 28.6
21:50 1011 29.85 840 24.81 4.2 39.5 64 -2 28.4
21:55 1011 29.85 840 24.81 4.2 39.5 62 -2.5 27.5
22:00 1011 29.85 840 24.81 4.6 40.2 63 -1.8 28.7
22:05 1011 29.85 840 24.81 4.1 39.3 66 -1.7 29
22:10 1011 29.85 840 24.81 3.7 38.6 67 -1.8 28.7
22:15 1011 29.85 840 24.81 3.4 38.2 67 -2.2 28.1
22:20 1011 29.85 840 24.81 3.5 38.3 66 -2.3 27.9
22:25 1010 29.83 840 24.81 3.6 38.5 66 -2.2 28
22:30 1010 29.83 839 24.78 3.7 38.6 65 -2.2 28.1
22:35 1010 29.83 839 24.78 3.8 38.9 65 -2.2 28.1
22:40 1010 29.83 839 24.78 3.9 39.1 65 -1.9 28.5
22:45 1010 29.83 839 24.78 3.9 39 67 -1.8 28.8
22:50 1010 29.83 839 24.78 3.8 38.8 68 -1.7 29
22:55 1010 29.83 839 24.78 3.6 38.6 69 -1.5 29.3
23:00 1009 29.8 839 24.78 3.6 38.4 70 -1.4 29.4
23:05 1009 29.8 838 24.75 3.5 38.4 70 -1.3 29.6
23:10 1009 29.8 838 24.75 3.5 38.2 71 -1.4 29.5
23:15 1009 29.8 838 24.75 3.5 38.2 70 -1.4 29.4
23:20 1009 29.8 838 24.75 3.5 38.3 70 -1.4 29.4
23:25 1009 29.8 838 24.75 3.6 38.4 71 -1.2 29.8
23:30 1009 29.8 838 24.75 3.6 38.5 71 -1.2 29.8
23:35 1008 29.77 838 24.75 3.6 38.5 71 -1.1 30.1
23:40 1008 29.77 837 24.72 3.6 38.5 72 -1 30.2
23:45 1008 29.77 837 24.72 3.5 38.4 72 -1 30.3
23:50 1008 29.77 837 24.72 3.4 38.1 73 -0.9 30.4
23:55 1008 29.77 837 24.72 3.3 37.9 73 -1 30.2
24:00 1008 29.77 837 24.72 3.3 37.9 73 -1.1 30.1